createdAt,value
2018-06-08T00:00:52.471Z,18.55
2018-06-08T00:01:58.816Z,18.60
2018-06-08T00:03:05.020Z,18.65
2018-06-08T00:04:11.384Z,18.67
2018-06-08T00:05:17.591Z,18.87
2018-06-08T00:06:23.436Z,19.18
2018-06-08T00:07:29.357Z,19.36
2018-06-08T00:08:35.801Z,19.41
2018-06-08T00:09:41.711Z,19.35
2018-06-08T00:10:47.936Z,19.25
2018-06-08T00:11:54.415Z,18.86
2018-06-08T00:13:00.626Z,18.44
2018-06-08T00:14:06.591Z,18.34
2018-06-08T00:15:12.516Z,18.36
2018-06-08T00:16:18.721Z,18.40
2018-06-08T00:17:24.940Z,18.45
2018-06-08T00:18:31.178Z,18.48
2018-06-08T00:19:40.639Z,18.30
2018-06-08T00:20:47.048Z,17.99
2018-06-08T00:21:53.341Z,17.88
2018-06-08T00:22:59.559Z,17.92
2018-06-08T00:24:05.390Z,18.00
2018-06-08T00:25:11.685Z,18.08
2018-06-08T00:26:18.112Z,18.16
2018-06-08T00:27:24.348Z,18.29
2018-06-08T00:28:30.504Z,18.30
2018-06-08T00:29:36.418Z,18.57
2018-06-08T00:30:42.751Z,18.48
2018-06-08T00:31:49.955Z,18.15
2018-06-08T00:32:56.129Z,17.86
2018-06-08T00:34:02.347Z,17.71
2018-06-08T00:35:08.608Z,17.78
2018-06-08T00:36:14.804Z,18.10
2018-06-08T00:37:25.644Z,18.36
2018-06-08T00:38:31.880Z,18.51
2018-06-08T00:39:38.125Z,18.24
2018-06-08T00:40:44.332Z,17.88
2018-06-08T00:41:50.680Z,17.83
2018-06-08T00:42:56.888Z,17.86
2018-06-08T00:44:03.386Z,17.93
2018-06-08T00:45:09.676Z,17.97
2018-06-08T00:46:15.961Z,17.95
2018-06-08T00:47:22.202Z,17.98
2018-06-08T00:48:28.391Z,17.86
2018-06-08T00:49:35.593Z,17.78
2018-06-08T00:50:44.859Z,17.95
2018-06-08T00:51:51.069Z,18.08
2018-06-08T00:52:59.231Z,18.31
2018-06-08T00:54:05.160Z,18.55
2018-06-08T00:55:11.424Z,18.68
2018-06-08T00:56:16.991Z,18.62
2018-06-08T00:57:22.977Z,18.43
2018-06-08T00:58:29.231Z,18.43
2018-06-08T00:59:35.171Z,18.58
2018-06-08T01:00:41.756Z,18.64
2018-06-08T01:01:46.749Z,18.48
2018-06-08T01:02:52.980Z,18.16
2018-06-08T01:03:58.877Z,17.97
2018-06-08T01:05:04.377Z,17.96
2018-06-08T01:06:10.597Z,18.06
2018-06-08T01:07:16.789Z,18.00
2018-06-08T01:08:23.020Z,17.80
2018-06-08T01:09:29.196Z,18.01
2018-06-08T01:10:35.408Z,18.01
2018-06-08T01:11:41.659Z,17.87
2018-06-08T01:12:47.547Z,17.74
2018-06-08T01:13:53.800Z,17.87
2018-06-08T01:14:59.950Z,17.84
2018-06-08T01:16:06.178Z,17.54
2018-06-08T01:17:12.433Z,17.57
2018-06-08T01:18:18.665Z,17.47
2018-06-08T01:19:24.515Z,17.36
2018-06-08T01:20:30.738Z,17.37
2018-06-08T01:21:36.978Z,17.38
2018-06-08T01:22:43.225Z,17.39
2018-06-08T01:23:49.599Z,17.41
2018-06-08T01:24:55.862Z,17.63
2018-06-08T01:26:02.123Z,17.91
2018-06-08T01:27:08.333Z,17.79
2018-06-08T01:28:14.579Z,17.32
2018-06-08T01:29:20.782Z,17.20
2018-06-08T01:30:27.032Z,17.30
2018-06-08T01:31:33.269Z,17.24
2018-06-08T01:32:39.426Z,17.25
2018-06-08T01:33:45.710Z,17.32
2018-06-08T01:34:52.090Z,17.33
2018-06-08T01:35:58.286Z,17.23
2018-06-08T01:37:04.226Z,17.02
2018-06-08T01:38:10.495Z,16.98
2018-06-08T01:39:17.367Z,16.91
2018-06-08T01:40:26.719Z,16.83
2018-06-08T01:41:32.675Z,16.86
2018-06-08T01:42:38.888Z,16.91
2018-06-08T01:43:45.423Z,16.90
2018-06-08T01:44:51.257Z,16.97
2018-06-08T01:45:57.100Z,17.04
2018-06-08T01:47:03.304Z,16.98
2018-06-08T01:48:09.483Z,16.79
2018-06-08T01:49:15.645Z,16.71
2018-06-08T01:50:23.730Z,16.72
2018-06-08T01:51:29.626Z,16.75
2018-06-08T01:52:36.650Z,16.82
2018-06-08T01:53:42.836Z,17.02
2018-06-08T01:54:49.047Z,16.90
2018-06-08T01:55:55.187Z,16.84
2018-06-08T01:57:01.375Z,16.79
2018-06-08T01:58:07.700Z,16.74
2018-06-08T01:59:14.775Z,16.75
2018-06-08T02:00:20.945Z,16.84
2018-06-08T02:01:27.178Z,16.96
2018-06-08T02:02:33.332Z,16.93
2018-06-08T02:03:39.533Z,16.88
2018-06-08T02:04:45.797Z,16.85
2018-06-08T02:05:51.669Z,16.81
2018-06-08T02:06:57.883Z,16.67
2018-06-08T02:08:04.123Z,16.48
2018-06-08T02:09:10.395Z,16.49
2018-06-08T02:10:17.456Z,16.60
2018-06-08T02:11:23.649Z,16.69
2018-06-08T02:12:29.853Z,16.67
2018-06-08T02:13:36.100Z,16.66
2018-06-08T02:14:42.408Z,16.62
2018-06-08T02:15:48.644Z,16.60
2018-06-08T02:16:55.220Z,16.58
2018-06-08T02:18:02.113Z,16.54
2018-06-08T02:19:08.368Z,16.51
2018-06-08T02:20:14.504Z,16.51
2018-06-08T02:21:20.658Z,16.55
2018-06-08T02:22:26.925Z,16.54
2018-06-08T02:23:33.110Z,16.48
2018-06-08T02:24:38.934Z,16.40
2018-06-08T02:25:44.871Z,16.33
2018-06-08T02:26:51.065Z,16.36
2018-06-08T02:27:57.366Z,16.62
2018-06-08T02:29:03.667Z,16.61
2018-06-08T02:30:09.172Z,16.41
2018-06-08T02:31:15.565Z,16.32
2018-06-08T02:32:21.785Z,16.38
2018-06-08T02:33:28.062Z,16.62
2018-06-08T02:34:34.270Z,16.66
2018-06-08T02:35:40.200Z,16.55
2018-06-08T02:36:46.395Z,16.47
2018-06-08T02:37:52.631Z,16.42
2018-06-08T02:38:58.915Z,16.41
2018-06-08T02:40:04.442Z,16.41
2018-06-08T02:41:10.800Z,16.39
2018-06-08T02:42:17.027Z,16.38
2018-06-08T02:43:22.895Z,16.30
2018-06-08T02:44:28.811Z,16.29
2018-06-08T02:45:34.730Z,16.27
2018-06-08T02:46:40.969Z,16.16
2018-06-08T02:47:47.134Z,16.18
2018-06-08T02:48:53.352Z,16.19
2018-06-08T02:49:59.601Z,16.16
2018-06-08T02:51:05.785Z,16.19
2018-06-08T02:52:12.041Z,16.22
2018-06-08T02:53:18.198Z,16.18
2018-06-08T02:54:24.390Z,16.22
2018-06-08T02:55:30.554Z,16.30
2018-06-08T02:56:36.736Z,16.31
2018-06-08T02:57:42.557Z,16.32
2018-06-08T02:58:48.864Z,16.24
2018-06-08T02:59:55.023Z,16.24
2018-06-08T03:01:01.249Z,16.04
2018-06-08T03:02:07.488Z,16.02
2018-06-08T03:03:13.652Z,15.88
2018-06-08T03:04:19.840Z,15.91
2018-06-08T03:05:25.717Z,16.08
2018-06-08T03:06:32.160Z,16.15
2018-06-08T03:07:38.393Z,16.16
2018-06-08T03:08:44.636Z,16.20
2018-06-08T03:09:54.170Z,16.10
2018-06-08T03:11:00.378Z,15.93
2018-06-08T03:12:06.721Z,15.94
2018-06-08T03:13:13.106Z,16.02
2018-06-08T03:14:19.517Z,16.11
2018-06-08T03:15:28.522Z,16.21
2018-06-08T03:16:34.711Z,16.32
2018-06-08T03:17:40.904Z,16.32
2018-06-08T03:18:47.147Z,16.32
2018-06-08T03:19:53.399Z,16.28
2018-06-08T03:20:59.591Z,16.26
2018-06-08T03:22:05.481Z,16.28
2018-06-08T03:23:11.719Z,16.19
2018-06-08T03:24:17.959Z,16.19
2018-06-08T03:25:24.247Z,16.17
2018-06-08T03:26:30.389Z,16.12
2018-06-08T03:27:36.667Z,16.14
2018-06-08T03:28:42.885Z,16.12
2018-06-08T03:29:49.111Z,16.15
2018-06-08T03:30:55.345Z,16.18
2018-06-08T03:32:01.646Z,16.10
2018-06-08T03:33:07.852Z,16.13
2018-06-08T03:34:14.058Z,16.12
2018-06-08T03:35:20.522Z,16.14
2018-06-08T03:36:26.859Z,16.27
2018-06-08T03:37:34.183Z,16.58
2018-06-08T03:38:40.397Z,16.59
2018-06-08T03:39:49.647Z,16.62
2018-06-08T03:40:55.846Z,16.44
2018-06-08T03:42:02.021Z,16.65
2018-06-08T03:43:08.269Z,16.80
2018-06-08T03:44:14.495Z,16.75
2018-06-08T03:45:21.381Z,16.88
2018-06-08T03:46:27.577Z,16.99
2018-06-08T03:47:33.441Z,17.02
2018-06-08T03:48:39.614Z,16.99
2018-06-08T03:49:46.080Z,16.98
2018-06-08T03:50:52.764Z,16.92
2018-06-08T03:51:58.981Z,16.66
2018-06-08T03:53:04.900Z,16.30
2018-06-08T03:54:11.096Z,16.06
2018-06-08T03:55:17.283Z,15.84
2018-06-08T03:56:23.443Z,15.75
2018-06-08T03:57:29.607Z,15.83
2018-06-08T03:58:35.825Z,15.87
2018-06-08T03:59:41.994Z,15.86
2018-06-08T04:00:48.314Z,16.08
2018-06-08T04:01:55.335Z,16.16
2018-06-08T04:03:01.606Z,16.45
2018-06-08T04:04:07.417Z,16.65
2018-06-08T04:05:13.627Z,16.71
2018-06-08T04:06:19.784Z,16.69
2018-06-08T04:07:25.958Z,16.55
2018-06-08T04:08:32.191Z,16.40
2018-06-08T04:09:38.403Z,16.35
2018-06-08T04:10:44.519Z,16.31
2018-06-08T04:11:50.692Z,16.45
2018-06-08T04:12:56.962Z,16.71
2018-06-08T04:14:03.194Z,16.73
2018-06-08T04:15:09.396Z,16.66
2018-06-08T04:16:15.571Z,16.59
2018-06-08T04:17:21.829Z,16.50
2018-06-08T04:18:28.379Z,16.51
2018-06-08T04:19:34.550Z,16.42
2018-06-08T04:20:40.858Z,16.38
2018-06-08T04:21:47.071Z,16.41
2018-06-08T04:22:53.312Z,16.38
2018-06-08T04:23:59.530Z,16.40
2018-06-08T04:25:05.362Z,16.58
2018-06-08T04:26:11.646Z,16.71
2018-06-08T04:27:17.878Z,16.84
2018-06-08T04:28:24.096Z,16.70
2018-06-08T04:29:30.241Z,16.65
2018-06-08T04:30:37.127Z,16.67
2018-06-08T04:31:43.629Z,16.68
2018-06-08T04:32:49.902Z,16.72
2018-06-08T04:33:56.357Z,16.76
2018-06-08T04:35:02.567Z,16.79
2018-06-08T04:36:08.724Z,16.84
2018-06-08T04:37:14.871Z,16.89
2018-06-08T04:38:21.124Z,16.88
2018-06-08T04:39:27.326Z,16.86
2018-06-08T04:40:33.575Z,16.87
2018-06-08T04:41:40.187Z,16.87
2018-06-08T04:42:46.398Z,16.90
2018-06-08T04:43:52.902Z,16.96
2018-06-08T04:44:59.210Z,16.99
2018-06-08T04:46:05.509Z,16.98
2018-06-08T04:47:11.701Z,17.00
2018-06-08T04:48:17.870Z,17.02
2018-06-08T04:49:24.502Z,17.05
2018-06-08T04:50:31.143Z,17.08
2018-06-08T04:51:37.393Z,17.09
2018-06-08T04:52:43.899Z,17.10
2018-06-08T04:53:50.199Z,17.15
2018-06-08T04:54:56.409Z,17.18
2018-06-08T04:56:02.591Z,17.22
2018-06-08T04:57:08.854Z,17.33
2018-06-08T04:58:15.070Z,17.28
2018-06-08T04:59:20.915Z,17.36
2018-06-08T05:00:27.204Z,17.42
2018-06-08T05:01:33.751Z,17.52
2018-06-08T05:02:40.365Z,17.58
2018-06-08T05:03:46.574Z,17.52
2018-06-08T05:04:52.912Z,17.52
2018-06-08T05:06:00.080Z,17.50
2018-06-08T05:07:06.267Z,17.57
2018-06-08T05:08:12.608Z,17.54
2018-06-08T05:09:20.086Z,17.61
2018-06-08T05:10:26.379Z,17.59
2018-06-08T05:11:32.581Z,17.62
2018-06-08T05:12:38.827Z,17.61
2018-06-08T05:13:45.294Z,17.69
2018-06-08T05:14:51.454Z,17.89
2018-06-08T05:15:57.445Z,18.03
2018-06-08T05:17:03.679Z,18.04
2018-06-08T05:18:09.881Z,18.03
2018-06-08T05:19:16.155Z,18.10
2018-06-08T05:20:22.329Z,18.24
2018-06-08T05:21:28.870Z,18.31
2018-06-08T05:22:35.494Z,18.31
2018-06-08T05:23:41.857Z,18.41
2018-06-08T05:24:48.913Z,18.51
2018-06-08T05:25:55.432Z,18.47
2018-06-08T05:27:01.825Z,18.43
2018-06-08T05:28:08.078Z,18.57
2018-06-08T05:29:14.031Z,18.52
2018-06-08T05:30:19.993Z,18.56
2018-06-08T05:31:26.230Z,18.57
2018-06-08T05:32:32.419Z,18.47
2018-06-08T05:33:38.332Z,18.42
2018-06-08T05:34:45.455Z,18.57
2018-06-08T05:35:51.642Z,18.63
2018-06-08T05:36:57.887Z,18.52
2018-06-08T05:38:04.793Z,18.50
2018-06-08T05:39:11.353Z,18.59
2018-06-08T05:40:18.132Z,18.76
2018-06-08T05:41:24.764Z,18.85
2018-06-08T05:42:30.964Z,18.97
2018-06-08T05:43:37.090Z,18.96
2018-06-08T05:44:43.311Z,18.92
2018-06-08T05:45:49.454Z,18.74
2018-06-08T05:46:55.661Z,18.76
2018-06-08T05:48:01.906Z,18.79
2018-06-08T05:49:08.128Z,18.94
2018-06-08T05:50:14.266Z,19.00
2018-06-08T05:51:20.431Z,18.90
2018-06-08T05:52:26.677Z,18.89
2018-06-08T05:53:32.868Z,18.96
2018-06-08T05:54:39.113Z,18.88
2018-06-08T05:55:45.348Z,18.92
2018-06-08T05:56:51.619Z,19.09
2018-06-08T05:57:57.881Z,19.32
2018-06-08T05:59:04.103Z,19.55
2018-06-08T06:00:09.988Z,19.71
2018-06-08T06:01:16.364Z,19.85
2018-06-08T06:02:22.508Z,19.97
2018-06-08T06:03:28.722Z,20.06
2018-06-08T06:04:34.959Z,20.09
2018-06-08T06:05:41.208Z,20.07
2018-06-08T06:06:47.390Z,20.17
2018-06-08T06:07:53.549Z,20.22
2018-06-08T06:08:59.759Z,20.28
2018-06-08T06:10:05.277Z,20.34
2018-06-08T06:11:11.460Z,20.39
2018-06-08T06:12:17.622Z,20.37
2018-06-08T06:13:23.601Z,20.48
2018-06-08T06:14:29.859Z,20.31
2018-06-08T06:15:36.499Z,20.23
2018-06-08T06:16:42.727Z,20.43
2018-06-08T06:17:48.936Z,20.52
2018-06-08T06:18:55.173Z,20.67
2018-06-08T06:20:01.440Z,20.73
2018-06-08T06:21:07.086Z,20.71
2018-06-08T06:22:13.284Z,20.68
2018-06-08T06:23:19.521Z,20.69
2018-06-08T06:24:25.731Z,20.75
2018-06-08T06:25:31.967Z,20.92
2018-06-08T06:26:38.507Z,21.04
2018-06-08T06:27:44.793Z,20.93
2018-06-08T06:28:51.055Z,21.01
2018-06-08T06:29:57.311Z,20.98
2018-06-08T06:31:03.513Z,21.09
2018-06-08T06:32:09.707Z,21.13
2018-06-08T06:33:15.967Z,21.20
2018-06-08T06:34:22.209Z,21.20
2018-06-08T06:35:28.411Z,21.37
2018-06-08T06:36:34.954Z,21.48
2018-06-08T06:37:42.524Z,21.50
2018-06-08T06:38:48.779Z,21.43
2018-06-08T06:39:55.338Z,21.44
2018-06-08T06:41:02.460Z,21.32
2018-06-08T06:42:08.731Z,21.13
2018-06-08T06:43:14.947Z,21.04
2018-06-08T06:44:21.134Z,21.09
2018-06-08T06:45:27.370Z,21.23
2018-06-08T06:46:33.522Z,21.25
2018-06-08T06:47:39.792Z,21.48
2018-06-08T06:48:46.005Z,21.64
2018-06-08T06:49:52.254Z,21.73
2018-06-08T06:50:58.469Z,21.56
2018-06-08T06:52:04.275Z,21.70
2018-06-08T06:53:10.235Z,21.85
2018-06-08T06:54:16.691Z,21.79
2018-06-08T06:55:22.908Z,21.95
2018-06-08T06:56:29.134Z,22.07
2018-06-08T06:57:35.341Z,22.18
2018-06-08T06:58:41.773Z,22.17
2018-06-08T06:59:47.982Z,22.14
2018-06-08T07:00:54.846Z,21.94
2018-06-08T07:02:01.055Z,21.90
2018-06-08T07:03:06.927Z,22.07
2018-06-08T07:04:13.208Z,22.17
2018-06-08T07:05:19.568Z,22.25
2018-06-08T07:06:26.537Z,22.02
2018-06-08T07:07:32.751Z,21.99
2018-06-08T07:08:38.971Z,22.15
2018-06-08T07:09:45.281Z,22.39
2018-06-08T07:10:51.522Z,22.44
2018-06-08T07:11:57.718Z,22.30
2018-06-08T07:13:03.920Z,22.38
2018-06-08T07:14:10.250Z,22.65
2018-06-08T07:15:16.478Z,22.61
2018-06-08T07:16:22.693Z,22.65
2018-06-08T07:17:28.584Z,22.78
2018-06-08T07:18:34.789Z,22.81
2018-06-08T07:19:40.980Z,22.68
2018-06-08T07:20:47.228Z,22.54
2018-06-08T07:21:53.496Z,22.62
2018-06-08T07:22:59.748Z,22.58
2018-06-08T07:24:05.951Z,22.50
2018-06-08T07:25:11.919Z,22.78
2018-06-08T07:26:17.752Z,22.99
2018-06-08T07:27:23.935Z,23.02
2018-06-08T07:28:30.094Z,22.93
2018-06-08T07:29:36.361Z,22.80
2018-06-08T07:30:42.556Z,22.95
2018-06-08T07:31:48.933Z,23.09
2018-06-08T07:32:55.814Z,23.11
2018-06-08T07:34:02.017Z,23.16
2018-06-08T07:35:08.260Z,23.34
2018-06-08T07:36:14.551Z,23.31
2018-06-08T07:37:20.821Z,23.47
2018-06-08T07:38:26.918Z,23.59
2018-06-08T07:39:32.935Z,23.66
2018-06-08T07:40:39.386Z,23.46
2018-06-08T07:41:45.595Z,23.61
2018-06-08T07:42:51.837Z,23.66
2018-06-08T07:43:58.438Z,23.66
2018-06-08T07:45:04.688Z,23.62
2018-06-08T07:46:10.915Z,23.66
2018-06-08T07:47:17.108Z,23.27
2018-06-08T07:48:22.985Z,23.11
2018-06-08T07:49:29.146Z,23.20
2018-06-08T07:50:35.379Z,23.23
2018-06-08T07:51:41.247Z,23.22
2018-06-08T07:52:47.476Z,23.26
2018-06-08T07:53:53.686Z,23.38
2018-06-08T07:55:00.178Z,23.51
2018-06-08T07:56:06.080Z,23.54
2018-06-08T07:57:12.352Z,23.44
2018-06-08T07:58:18.903Z,23.63
2018-06-08T07:59:25.203Z,23.63
2018-06-08T08:00:31.474Z,23.64
2018-06-08T08:01:37.624Z,23.66
2018-06-08T08:02:43.849Z,23.83
2018-06-08T08:03:50.094Z,23.97
2018-06-08T08:04:56.364Z,24.07
2018-06-08T08:06:02.634Z,24.00
2018-06-08T08:07:09.055Z,24.05
2018-06-08T08:08:17.803Z,24.07
2018-06-08T08:09:24.544Z,24.14
2018-06-08T08:10:30.853Z,24.28
2018-06-08T08:11:37.019Z,24.43
2018-06-08T08:12:43.091Z,24.28
2018-06-08T08:13:49.275Z,24.39
2018-06-08T08:14:55.235Z,24.41
2018-06-08T08:16:00.876Z,24.43
2018-06-08T08:17:06.503Z,24.51
2018-06-08T08:18:12.416Z,24.67
2018-06-08T08:19:18.634Z,24.82
2018-06-08T08:20:25.033Z,24.84
2018-06-08T08:21:30.889Z,24.92
2018-06-08T08:22:37.033Z,24.88
2018-06-08T08:23:42.990Z,24.66
2018-06-08T08:24:48.995Z,24.76
2018-06-08T08:25:55.961Z,24.72
2018-06-08T08:27:02.238Z,24.57
2018-06-08T08:28:08.179Z,24.64
2018-06-08T08:29:14.111Z,24.66
2018-06-08T08:30:20.038Z,24.74
2018-06-08T08:31:25.995Z,24.70
2018-06-08T08:32:32.193Z,24.88
2018-06-08T08:33:38.335Z,25.19
2018-06-08T08:34:44.295Z,25.23
2018-06-08T08:35:50.226Z,25.27
2018-06-08T08:36:56.142Z,25.33
2018-06-08T08:38:02.130Z,25.49
2018-06-08T08:39:08.131Z,25.59
2018-06-08T08:40:14.055Z,25.72
2018-06-08T08:41:19.996Z,25.73
2018-06-08T08:42:25.868Z,25.64
2018-06-08T08:43:31.917Z,25.42
2018-06-08T08:44:38.666Z,25.62
2018-06-08T08:45:44.946Z,25.65
2018-06-08T08:46:51.925Z,25.63
2018-06-08T08:47:58.419Z,25.58
2018-06-08T08:49:04.695Z,25.65
2018-06-08T08:50:10.594Z,25.75
2018-06-08T08:51:16.585Z,25.90
2018-06-08T08:52:22.580Z,26.00
2018-06-08T08:53:28.517Z,25.58
2018-06-08T08:54:34.504Z,25.63
2018-06-08T08:55:40.531Z,25.89
2018-06-08T08:56:50.298Z,25.96
2018-06-08T08:57:58.486Z,26.19
2018-06-08T08:59:04.106Z,26.35
2018-06-08T09:00:10.425Z,26.51
2018-06-08T09:01:16.403Z,26.64
2018-06-08T09:02:22.314Z,26.81
2018-06-08T09:03:28.269Z,26.95
2018-06-08T09:04:34.229Z,26.67
2018-06-08T09:05:40.166Z,26.46
2018-06-08T09:06:46.058Z,26.41
2018-06-08T09:07:52.014Z,26.36
2018-06-08T09:08:57.923Z,26.32
2018-06-08T09:10:03.621Z,26.45
2018-06-08T09:11:09.961Z,26.67
2018-06-08T09:12:16.185Z,26.80
2018-06-08T09:13:22.255Z,26.75
2018-06-08T09:14:28.211Z,26.63
2018-06-08T09:15:34.106Z,26.68
2018-06-08T09:16:39.686Z,26.82
2018-06-08T09:17:45.553Z,26.79
2018-06-08T09:18:51.475Z,26.68
2018-06-08T09:19:57.376Z,26.65
2018-06-08T09:21:03.344Z,26.69
2018-06-08T09:22:09.191Z,26.91
2018-06-08T09:23:15.289Z,26.88
2018-06-08T09:24:21.269Z,26.89
2018-06-08T09:25:27.160Z,26.92
2018-06-08T09:26:36.907Z,26.95
2018-06-08T09:27:44.595Z,26.97
2018-06-08T09:28:50.529Z,27.04
2018-06-08T09:29:56.440Z,27.26
2018-06-08T09:31:02.354Z,27.11
2018-06-08T09:32:08.247Z,27.24
2018-06-08T09:33:14.205Z,27.31
2018-06-08T09:34:20.806Z,27.19
2018-06-08T09:35:27.770Z,27.35
2018-06-08T09:36:33.670Z,27.57
2018-06-08T09:37:39.653Z,27.41
2018-06-08T09:38:45.573Z,27.45
2018-06-08T09:39:52.221Z,27.30
2018-06-08T09:40:58.910Z,27.25
2018-06-08T09:42:05.228Z,27.33
2018-06-08T09:43:11.540Z,27.60
2018-06-08T09:44:19.968Z,27.66
2018-06-08T09:45:26.627Z,27.78
2018-06-08T09:46:33.416Z,27.76
2018-06-08T09:47:40.025Z,27.78
2018-06-08T09:48:46.838Z,27.72
2018-06-08T09:49:53.428Z,27.77
2018-06-08T09:51:00.335Z,27.57
2018-06-08T09:52:06.445Z,27.65
2018-06-08T09:53:12.355Z,27.87
2018-06-08T09:54:18.905Z,27.79
2018-06-08T09:55:26.146Z,27.56
2018-06-08T09:56:32.459Z,27.77
2018-06-08T09:57:38.159Z,28.18
2018-06-08T09:58:44.084Z,28.32
2018-06-08T09:59:50.063Z,28.38
2018-06-08T10:00:56.300Z,28.28
2018-06-08T10:02:02.968Z,28.23
2018-06-08T10:03:09.336Z,27.95
2018-06-08T10:04:15.301Z,27.79
2018-06-08T10:05:21.248Z,27.87
2018-06-08T10:06:27.368Z,27.72
2018-06-08T10:07:33.312Z,27.73
2018-06-08T10:08:39.300Z,27.96
2018-06-08T10:09:45.286Z,28.06
2018-06-08T10:10:51.237Z,28.01
2018-06-08T10:11:57.201Z,28.19
2018-06-08T10:13:03.128Z,28.31
2018-06-08T10:14:09.039Z,28.49
2018-06-08T10:15:14.932Z,28.59
2018-06-08T10:16:20.825Z,28.78
2018-06-08T10:17:26.519Z,29.00
2018-06-08T10:18:33.132Z,29.07
2018-06-08T10:19:39.371Z,28.85
2018-06-08T10:20:45.016Z,28.81
2018-06-08T10:21:51.017Z,28.73
2018-06-08T10:22:56.973Z,28.85
2018-06-08T10:24:02.868Z,28.88
2018-06-08T10:25:08.822Z,28.91
2018-06-08T10:26:14.733Z,28.83
2018-06-08T10:27:20.671Z,28.61
2018-06-08T10:28:26.609Z,28.62
2018-06-08T10:29:32.689Z,28.87
2018-06-08T10:30:38.796Z,28.83
2018-06-08T10:31:44.779Z,28.86
2018-06-08T10:32:50.695Z,28.67
2018-06-08T10:33:59.445Z,28.78
2018-06-08T10:35:05.083Z,28.82
2018-06-08T10:36:11.131Z,28.80
2018-06-08T10:37:17.210Z,28.93
2018-06-08T10:38:23.158Z,29.14
2018-06-08T10:39:29.093Z,29.23
2018-06-08T10:40:34.664Z,28.92
2018-06-08T10:41:40.716Z,28.68
2018-06-08T10:42:46.759Z,28.54
2018-06-08T10:43:52.663Z,28.77
2018-06-08T10:44:58.571Z,28.84
2018-06-08T10:46:04.284Z,28.97
2018-06-08T10:47:10.244Z,29.18
2018-06-08T10:48:16.301Z,29.18
2018-06-08T10:49:22.168Z,29.14
2018-06-08T10:50:28.099Z,29.03
2018-06-08T10:51:34.196Z,29.13
2018-06-08T10:52:40.101Z,29.24
2018-06-08T10:53:46.086Z,28.96
2018-06-08T10:54:52.224Z,29.07
2018-06-08T10:55:58.287Z,28.81
2018-06-08T10:57:04.289Z,28.91
2018-06-08T10:58:10.228Z,28.76
2018-06-08T10:59:16.155Z,28.85
2018-06-08T11:00:22.116Z,28.82
2018-06-08T11:01:28.048Z,28.86
2018-06-08T11:02:34.440Z,28.95
2018-06-08T11:03:40.356Z,29.03
2018-06-08T11:04:46.212Z,29.34
2018-06-08T11:05:52.164Z,29.31
2018-06-08T11:07:00.296Z,29.41
2018-06-08T11:08:13.193Z,29.53
2018-06-08T11:09:21.698Z,29.49
2018-06-08T11:10:28.205Z,29.46
2018-06-08T11:11:34.119Z,29.41
2018-06-08T11:12:40.068Z,29.67
2018-06-08T11:13:45.982Z,29.97
2018-06-08T11:14:51.900Z,29.87
2018-06-08T11:15:57.827Z,29.82
2018-06-08T11:17:04.017Z,29.76
2018-06-08T11:18:09.985Z,29.66
2018-06-08T11:19:15.612Z,29.62
2018-06-08T11:20:21.550Z,29.50
2018-06-08T11:21:27.418Z,29.77
2018-06-08T11:22:33.365Z,29.76
2018-06-08T11:23:39.263Z,29.73
2018-06-08T11:24:45.147Z,29.84
2018-06-08T11:25:51.068Z,29.51
2018-06-08T11:26:57.028Z,29.66
2018-06-08T11:28:03.123Z,29.96
2018-06-08T11:29:09.102Z,29.88
2018-06-08T11:30:15.200Z,29.75
2018-06-08T11:31:21.132Z,29.62
2018-06-08T11:32:27.171Z,29.85
2018-06-08T11:33:33.357Z,30.00
2018-06-08T11:34:39.318Z,30.21
2018-06-08T11:35:45.260Z,30.50
2018-06-08T11:36:51.230Z,30.59
2018-06-08T11:37:57.266Z,30.26
2018-06-08T11:39:03.043Z,30.45
2018-06-08T11:40:09.414Z,30.68
2018-06-08T11:41:15.989Z,30.21
2018-06-08T11:42:22.305Z,30.09
2018-06-08T11:43:28.237Z,29.90
2018-06-08T11:44:37.030Z,29.78
2018-06-08T11:45:42.904Z,29.88
2018-06-08T11:46:48.937Z,30.10
2018-06-08T11:47:54.912Z,30.25
2018-06-08T11:49:00.873Z,30.17
2018-06-08T11:50:06.565Z,30.19
2018-06-08T11:51:12.487Z,30.18
2018-06-08T11:52:18.437Z,30.17
2018-06-08T11:53:24.538Z,30.27
2018-06-08T11:54:30.760Z,30.29
2018-06-08T11:55:36.707Z,30.00
2018-06-08T11:56:42.667Z,29.77
2018-06-08T11:57:48.340Z,29.83
2018-06-08T11:58:54.292Z,29.76
2018-06-08T12:00:00.197Z,29.76
2018-06-08T12:01:06.164Z,29.75
2018-06-08T12:02:12.198Z,29.68
2018-06-08T12:03:18.096Z,29.87
2018-06-08T12:04:24.169Z,30.22
2018-06-08T12:05:30.115Z,30.15
2018-06-08T12:06:36.234Z,29.87
2018-06-08T12:07:42.175Z,29.68
2018-06-08T12:08:48.053Z,30.06
2018-06-08T12:09:54.047Z,30.48
2018-06-08T12:11:00.013Z,30.72
2018-06-08T12:12:05.946Z,30.79
2018-06-08T12:13:11.862Z,30.20
2018-06-08T12:14:17.784Z,30.24
2018-06-08T12:15:23.423Z,30.55
2018-06-08T12:16:29.104Z,30.77
2018-06-08T12:17:34.801Z,30.82
2018-06-08T12:19:40.279Z,30.42
2018-06-08T12:20:46.213Z,30.36
2018-06-08T12:21:52.798Z,30.30
2018-06-08T12:22:58.769Z,30.20
2018-06-08T12:24:04.743Z,30.15
2018-06-08T12:25:11.099Z,30.30
2018-06-08T12:26:17.214Z,30.32
2018-06-08T12:27:23.130Z,30.19
2018-06-08T12:28:29.100Z,30.04
2018-06-08T12:29:35.024Z,29.79
2018-06-08T12:30:40.974Z,29.67
2018-06-08T12:31:47.105Z,29.80
2018-06-08T12:32:53.122Z,30.13
2018-06-08T12:33:59.313Z,30.09
2018-06-08T12:35:05.329Z,30.25
2018-06-08T12:36:11.333Z,30.24
2018-06-08T12:37:17.489Z,30.34
2018-06-08T12:38:23.474Z,30.58
2018-06-08T12:39:29.435Z,30.60
2018-06-08T12:40:35.369Z,30.87
2018-06-08T12:41:41.283Z,31.01
2018-06-08T12:42:47.279Z,30.44
2018-06-08T12:43:53.209Z,30.34
2018-06-08T12:44:59.156Z,30.29
2018-06-08T12:46:05.451Z,30.08
2018-06-08T12:47:11.351Z,29.93
2018-06-08T12:48:17.269Z,30.01
2018-06-08T12:49:23.206Z,30.09
2018-06-08T12:50:29.172Z,30.16
2018-06-08T12:51:35.075Z,30.25
2018-06-08T12:52:41.004Z,30.32
2018-06-08T12:53:51.929Z,30.23
2018-06-08T12:55:01.965Z,30.43
2018-06-08T12:56:07.889Z,30.39
2018-06-08T12:57:14.813Z,30.35
2018-06-08T12:58:20.731Z,30.44
2018-06-08T12:59:26.617Z,30.85
2018-06-08T13:00:32.583Z,31.06
2018-06-08T13:01:38.252Z,31.04
2018-06-08T13:02:44.137Z,30.73
2018-06-08T13:03:50.050Z,30.78
2018-06-08T13:04:55.936Z,31.12
2018-06-08T13:06:01.942Z,31.38
2018-06-08T13:07:07.678Z,31.19
2018-06-08T13:08:13.816Z,31.09
2018-06-08T13:09:19.715Z,31.38
2018-06-08T13:10:25.739Z,31.16
2018-06-08T13:11:31.620Z,31.14
2018-06-08T13:12:37.539Z,30.85
2018-06-08T13:13:43.423Z,30.87
2018-06-08T13:14:49.381Z,31.08
2018-06-08T13:15:55.248Z,31.35
2018-06-08T13:17:01.245Z,31.08
2018-06-08T13:18:07.379Z,31.15
2018-06-08T13:19:13.631Z,31.47
2018-06-08T13:20:19.576Z,31.55
2018-06-08T13:21:25.449Z,31.73
2018-06-08T13:22:31.341Z,31.81
2018-06-08T13:23:37.267Z,31.75
2018-06-08T13:24:43.165Z,31.51
2018-06-08T13:25:49.064Z,31.52
2018-06-08T13:26:54.971Z,31.42
2018-06-08T13:28:00.886Z,31.19
2018-06-08T13:29:06.783Z,30.80
2018-06-08T13:30:12.635Z,30.68
2018-06-08T13:31:18.725Z,30.65
2018-06-08T13:32:24.645Z,30.52
2018-06-08T13:33:30.547Z,30.39
2018-06-08T13:34:36.783Z,30.35
2018-06-08T13:35:43.064Z,30.40
2018-06-08T13:36:48.766Z,30.46
2018-06-08T13:37:54.729Z,30.37
2018-06-08T13:39:00.656Z,30.39
2018-06-08T13:40:06.260Z,30.47
2018-06-08T13:41:12.143Z,30.55
2018-06-08T13:42:18.114Z,30.75
2018-06-08T13:43:24.067Z,30.79
2018-06-08T13:44:30.000Z,30.89
2018-06-08T13:45:35.887Z,30.83
2018-06-08T13:46:43.155Z,30.70
2018-06-08T13:47:49.725Z,30.70
2018-06-08T13:48:55.692Z,30.67
2018-06-08T13:50:01.580Z,30.55
2018-06-08T13:51:07.641Z,30.74
2018-06-08T13:52:13.494Z,30.79
2018-06-08T13:53:19.341Z,30.88
2018-06-08T13:54:25.265Z,30.75
2018-06-08T13:55:31.245Z,30.77
2018-06-08T13:56:37.173Z,31.00
2018-06-08T13:57:43.080Z,31.10
2018-06-08T13:58:48.970Z,31.46
2018-06-08T13:59:54.890Z,31.51
2018-06-08T14:01:00.813Z,31.43
2018-06-08T14:02:06.543Z,31.25
2018-06-08T14:03:12.652Z,31.31
2018-06-08T14:04:18.589Z,31.21
2018-06-08T14:05:24.556Z,31.08
2018-06-08T14:06:30.517Z,31.01
2018-06-08T14:07:36.421Z,31.22
2018-06-08T14:08:42.343Z,31.27
2018-06-08T14:09:48.479Z,31.32
2018-06-08T14:10:54.134Z,31.32
2018-06-08T14:12:00.092Z,31.02
2018-06-08T14:13:06.298Z,31.08
2018-06-08T14:14:12.339Z,31.38